Time;durP1;ratioP1;P1;durP2;ratioP2;P2;SDS_P1;SDS_P2;PMS_P1;PMS_P2;Temp;Humidity;BMP_temperature;BMP_pressure;BME280_temperature;BME280_humidity;BME280_pressure;Samples;Min_cycle;Max_cycle;Signal;HPM_P1;HPM_P2
2023/03/18 00:00:12;;;;;;;77.18;29.52;;;;;;;;;;5114036;28;20444;-76
2023/03/18 00:02:38;;;;;;;77.88;30.42;;;;;;;;;;5114799;28;20084;-78
2023/03/18 00:05:06;;;;;;;79.63;28.70;;;;;;;;;;5113797;28;20063;-76
2023/03/18 00:07:32;;;;;;;77.18;31.17;;;;;;;;;;5113883;28;20410;-75
2023/03/18 00:09:57;;;;;;;76.43;31.30;;;;;;;;;;5114187;28;20172;-75
2023/03/18 00:12:23;;;;;;;67.45;26.75;;;;;;;;;;5115148;28;20015;-77
2023/03/18 00:14:49;;;;;;;75.00;28.33;;;;;;;;;;5112262;28;20080;-76
2023/03/18 00:17:14;;;;;;;70.00;28.10;;;;;;;;;;5113404;28;20368;-76
2023/03/18 00:19:40;;;;;;;58.80;24.50;;;;;;;;;;5113492;28;20027;-77
2023/03/18 00:22:07;;;;;;;67.65;25.30;;;;;;;;;;5113477;28;20034;-76
2023/03/18 00:24:32;;;;;;;58.17;23.33;;;;;;;;;;5114973;28;20051;-77
2023/03/18 00:26:58;;;;;;;59.65;24.80;;;;;;;;;;5114593;28;20453;-76
2023/03/18 00:29:24;;;;;;;63.88;27.33;;;;;;;;;;5114996;28;20031;-76
2023/03/18 00:31:50;;;;;;;71.90;28.17;;;;;;;;;;5096408;28;20028;-78
2023/03/18 00:34:16;;;;;;;62.95;26.98;;;;;;;;;;5113444;28;20416;-76
2023/03/18 00:36:41;;;;;;;71.90;27.25;;;;;;;;;;5113294;28;20369;-76
2023/03/18 00:39:08;;;;;;;67.30;26.38;;;;;;;;;;5114340;28;20057;-76
2023/03/18 00:41:35;;;;;;;61.58;24.90;;;;;;;;;;5096702;28;20039;-76
2023/03/18 00:44:00;;;;;;;60.60;23.83;;;;;;;;;;5112718;28;20027;-76
2023/03/18 00:46:29;;;;;;;62.55;23.65;;;;;;;;;;5112971;28;20372;-76
2023/03/18 00:48:56;;;;;;;62.28;23.60;;;;;;;;;;5130695;27;20023;-76
2023/03/18 00:51:22;;;;;;;53.65;20.15;;;;;;;;;;5130477;27;20114;-76
2023/03/18 00:53:50;;;;;;;55.67;20.42;;;;;;;;;;5096174;28;20027;-76
2023/03/18 00:56:17;;;;;;;57.63;21.38;;;;;;;;;;5130319;27;20023;-77
2023/03/18 00:58:44;;;;;;;53.05;18.92;;;;;;;;;;5113106;28;20035;-76
2023/03/18 01:01:11;;;;;;;53.05;19.77;;;;;;;;;;5095596;28;20350;-76
2023/03/18 01:03:36;;;;;;;43.33;16.85;;;;;;;;;;5113023;28;20020;-75
2023/03/18 01:06:03;;;;;;;49.35;18.85;;;;;;;;;;5096120;28;20345;-76
2023/03/18 01:08:29;;;;;;;46.05;17.52;;;;;;;;;;5114300;28;20073;-76
2023/03/18 01:10:55;;;;;;;44.78;18.67;;;;;;;;;;5114089;28;20027;-76
2023/03/18 01:13:21;;;;;;;42.22;16.38;;;;;;;;;;5113182;28;20022;-75
2023/03/18 01:15:47;;;;;;;41.70;16.08;;;;;;;;;;5113394;28;20035;-76
2023/03/18 01:18:12;;;;;;;42.65;15.68;;;;;;;;;;5113174;28;20043;-76
2023/03/18 01:20:37;;;;;;;43.35;16.77;;;;;;;;;;5112816;28;20111;-77
2023/03/18 01:23:04;;;;;;;38.67;16.23;;;;;;;;;;5113976;28;20074;-76
2023/03/18 01:25:30;;;;;;;43.58;16.73;;;;;;;;;;5112891;28;20031;-76
2023/03/18 01:27:55;;;;;;;42.35;16.38;;;;;;;;;;5114039;28;20030;-76
2023/03/18 01:30:22;;;;;;;38.05;15.65;;;;;;;;;;5113932;28;20406;-77
2023/03/18 01:32:48;;;;;;;38.97;15.75;;;;;;;;;;5112704;28;20059;-76
2023/03/18 01:35:13;;;;;;;40.35;16.38;;;;;;;;;;5095735;28;20078;-76
2023/03/18 01:37:38;;;;;;;41.85;17.63;;;;;;;;;;5112708;28;20032;-76
2023/03/18 01:40:05;;;;;;;47.55;19.40;;;;;;;;;;5095417;28;20086;-76
2023/03/18 01:42:31;;;;;;;47.85;18.58;;;;;;;;;;5129723;27;20134;-76
2023/03/18 01:45:18;;;;;;;46.20;19.20;;;;;;;;;;5095722;28;20081;-75
2023/03/18 01:47:44;;;;;;;38.35;15.88;;;;;;;;;;5112661;28;20027;-76
2023/03/18 01:50:10;;;;;;;39.08;16.67;;;;;;;;;;5112587;28;20100;-76
2023/03/18 01:52:36;;;;;;;40.38;16.50;;;;;;;;;;5130038;27;20020;-76
2023/03/18 01:55:13;;;;;;;48.88;22.75;;;;;;;;;;5113500;28;20348;-76
2023/03/18 01:57:38;;;;;;;39.88;16.17;;;;;;;;;;5116315;28;20453;-76
2023/03/18 02:00:04;;;;;;;30.65;13.68;;;;;;;;;;5116340;28;20027;-76
2023/03/18 02:02:30;;;;;;;31.23;13.30;;;;;;;;;;5117422;28;20035;-75
2023/03/18 02:04:57;;;;;;;38.25;13.98;;;;;;;;;;5099665;28;20096;-76
2023/03/18 02:07:24;;;;;;;41.17;15.50;;;;;;;;;;5133378;27;20067;-76
2023/03/18 02:09:49;;;;;;;31.67;14.48;;;;;;;;;;5116186;28;20034;-76
2023/03/18 02:12:20;;;;;;;29.23;14.52;;;;;;;;;;5099213;28;20520;-76
2023/03/18 02:14:46;;;;;;;30.13;13.15;;;;;;;;;;5116425;27;20130;-78
2023/03/18 02:17:15;;;;;;;34.65;13.95;;;;;;;;;;5099242;28;20055;-76
2023/03/18 02:19:53;;;;;;;29.45;13.95;;;;;;;;;;5121908;27;20072;-75
2023/03/18 02:22:29;;;;;;;35.40;15.38;;;;;;;;;;5133845;27;20024;-76
2023/03/18 02:25:04;;;;;;;35.17;16.35;;;;;;;;;;5115706;28;20135;-76
2023/03/18 02:27:31;;;;;;;38.53;17.92;;;;;;;;;;5116596;28;20030;-76
2023/03/18 02:30:00;;;;;;;34.53;15.77;;;;;;;;;;5132983;27;20485;-76
2023/03/18 02:32:49;;;;;;;34.60;15.85;;;;;;;;;;5115675;28;20116;-77
2023/03/18 02:35:15;;;;;;;39.50;17.55;;;;;;;;;;5115488;28;20122;-77
2023/03/18 02:37:40;;;;;;;41.58;20.00;;;;;;;;;;5115601;28;20107;-76
2023/03/18 02:40:18;;;;;;;41.88;20.50;;;;;;;;;;5116570;28;20460;-76
2023/03/18 02:42:44;;;;;;;38.42;19.80;;;;;;;;;;5116722;28;20112;-76
2023/03/18 02:45:16;;;;;;;39.05;19.45;;;;;;;;;;5132545;27;20179;-78
2023/03/18 02:47:41;;;;;;;35.13;18.00;;;;;;;;;;5133112;27;20357;-76
2023/03/18 02:50:08;;;;;;;41.55;19.55;;;;;;;;;;5115416;28;20027;-76
2023/03/18 02:52:33;;;;;;;40.88;19.63;;;;;;;;;;5132604;27;20076;-77
2023/03/18 02:55:00;;;;;;;36.08;19.25;;;;;;;;;;5098261;28;20027;-77
2023/03/18 02:57:26;;;;;;;35.83;19.33;;;;;;;;;;5116133;28;20461;-76
2023/03/18 02:59:51;;;;;;;38.50;19.60;;;;;;;;;;5115274;28;20024;-78
2023/03/18 03:02:16;;;;;;;37.08;19.05;;;;;;;;;;5115243;28;20058;-77
2023/03/18 03:04:42;;;;;;;39.97;19.48;;;;;;;;;;5116287;28;20115;-76
2023/03/18 03:07:08;;;;;;;38.17;20.33;;;;;;;;;;5115748;28;20057;-78
2023/03/18 03:09:33;;;;;;;38.53;17.67;;;;;;;;;;5115050;28;20028;-78
2023/03/18 03:11:59;;;;;;;34.80;18.38;;;;;;;;;;5115938;28;20034;-77
2023/03/18 03:14:24;;;;;;;40.85;19.33;;;;;;;;;;5114981;28;20365;-77
2023/03/18 03:16:49;;;;;;;38.58;19.60;;;;;;;;;;5116157;28;20032;-78
2023/03/18 03:19:15;;;;;;;40.00;19.50;;;;;;;;;;5116010;28;20361;-77
2023/03/18 03:21:41;;;;;;;42.33;19.13;;;;;;;;;;5114792;28;20384;-77
2023/03/18 03:24:06;;;;;;;38.08;19.67;;;;;;;;;;5115939;28;20089;-78
2023/03/18 03:26:33;;;;;;;39.25;19.73;;;;;;;;;;5115721;28;20035;-77
2023/03/18 03:28:59;;;;;;;41.78;19.85;;;;;;;;;;5114480;28;20415;-77
2023/03/18 03:31:25;;;;;;;42.15;20.02;;;;;;;;;;5116028;28;20106;-77
2023/03/18 03:33:51;;;;;;;39.42;19.85;;;;;;;;;;5114631;28;20023;-78
2023/03/18 03:36:17;;;;;;;44.65;21.77;;;;;;;;;;5097495;28;20035;-76
2023/03/18 03:38:42;;;;;;;46.42;20.83;;;;;;;;;;5114952;28;20020;-77
2023/03/18 03:41:09;;;;;;;43.92;20.65;;;;;;;;;;5115319;28;20146;-76
2023/03/18 03:43:36;;;;;;;44.88;20.15;;;;;;;;;;5114175;28;20361;-77
2023/03/18 03:46:02;;;;;;;42.50;21.67;;;;;;;;;;5114330;28;20028;-77
2023/03/18 03:48:27;;;;;;;47.88;22.25;;;;;;;;;;5114511;28;20023;-78
2023/03/18 03:50:53;;;;;;;41.17;21.67;;;;;;;;;;5115126;28;20476;-77
2023/03/18 03:53:19;;;;;;;44.97;22.25;;;;;;;;;;5114143;28;20024;-78
2023/03/18 03:55:44;;;;;;;47.65;22.33;;;;;;;;;;5148225;27;20036;-77
2023/03/18 03:58:10;;;;;;;41.17;21.50;;;;;;;;;;5115746;28;20054;-77
2023/03/18 04:00:36;;;;;;;40.10;21.55;;;;;;;;;;5115190;28;20032;-77
2023/03/18 04:03:03;;;;;;;40.33;20.65;;;;;;;;;;5113782;28;20031;-76
2023/03/18 04:05:28;;;;;;;41.33;20.95;;;;;;;;;;5115061;28;20051;-76
2023/03/18 04:07:54;;;;;;;36.50;18.52;;;;;;;;;;5115056;28;20051;-76
2023/03/18 04:10:20;;;;;;;43.20;19.65;;;;;;;;;;5114986;28;20420;-76
2023/03/18 04:12:46;;;;;;;44.28;18.77;;;;;;;;;;5131350;27;20399;-78
2023/03/18 04:15:12;;;;;;;33.50;17.95;;;;;;;;;;5113745;28;20047;-77
2023/03/18 04:17:39;;;;;;;34.88;17.48;;;;;;;;;;5130916;27;20024;-77
2023/03/18 04:20:06;;;;;;;33.63;16.50;;;;;;;;;;5113192;28;20104;-77
2023/03/18 04:22:31;;;;;;;39.08;18.25;;;;;;;;;;5130711;27;20118;-76
2023/03/18 04:24:57;;;;;;;35.45;18.90;;;;;;;;;;5113212;28;20501;-76
2023/03/18 04:27:23;;;;;;;36.33;19.63;;;;;;;;;;5114709;28;20034;-76
2023/03/18 04:29:48;;;;;;;38.70;18.83;;;;;;;;;;5113483;28;20115;-76
2023/03/18 04:32:14;;;;;;;34.78;17.90;;;;;;;;;;5113365;28;20438;-76
2023/03/18 04:34:39;;;;;;;41.05;19.88;;;;;;;;;;5114541;28;20034;-76
2023/03/18 04:37:05;;;;;;;41.78;20.45;;;;;;;;;;5114636;28;20379;-76
2023/03/18 04:39:30;;;;;;;36.95;19.42;;;;;;;;;;5096112;28;20445;-78
2023/03/18 04:41:57;;;;;;;39.88;21.05;;;;;;;;;;5114737;28;20032;-77
2023/03/18 04:44:23;;;;;;;38.70;21.35;;;;;;;;;;5113340;28;20084;-77
2023/03/18 04:46:49;;;;;;;42.33;21.52;;;;;;;;;;5113189;28;20023;-77
2023/03/18 04:49:14;;;;;;;41.92;20.52;;;;;;;;;;5113588;28;20353;-77
2023/03/18 04:51:40;;;;;;;44.00;21.58;;;;;;;;;;5094719;28;20035;-77
2023/03/18 04:54:05;;;;;;;45.83;21.90;;;;;;;;;;5079148;28;20034;-78
2023/03/18 04:56:32;;;;;;;52.10;24.00;;;;;;;;;;5114360;28;20368;-76
2023/03/18 04:58:57;;;;;;;45.75;22.95;;;;;;;;;;5114198;28;20028;-76
2023/03/18 05:01:23;;;;;;;53.90;24.35;;;;;;;;;;5114754;28;20041;-77
2023/03/18 05:03:49;;;;;;;48.00;23.70;;;;;;;;;;5114197;28;20522;-77
2023/03/18 05:06:27;;;;;;;45.00;22.50;;;;;;;;;;5114136;28;20483;-77
2023/03/18 05:08:53;;;;;;;45.38;22.00;;;;;;;;;;5129868;27;20085;-77
2023/03/18 05:11:19;;;;;;;47.88;22.75;;;;;;;;;;5114338;28;20039;-77
2023/03/18 05:13:45;;;;;;;47.40;22.75;;;;;;;;;;5114389;28;20435;-77
2023/03/18 05:16:10;;;;;;;51.03;24.85;;;;;;;;;;5114113;28;20028;-78
2023/03/18 05:18:36;;;;;;;48.60;23.92;;;;;;;;;;5114035;28;20070;-77
2023/03/18 05:21:02;;;;;;;49.85;25.27;;;;;;;;;;5129730;27;20015;-77
2023/03/18 05:23:28;;;;;;;48.95;23.67;;;;;;;;;;5112864;28;20476;-77
2023/03/18 05:25:54;;;;;;;44.85;23.77;;;;;;;;;;5112847;28;20019;-77
2023/03/18 05:28:20;;;;;;;49.60;24.35;;;;;;;;;;5114065;28;20414;-76
2023/03/18 05:30:46;;;;;;;50.38;26.02;;;;;;;;;;5115138;28;20118;-76
2023/03/18 05:33:11;;;;;;;46.47;24.50;;;;;;;;;;5117023;28;20126;-77
2023/03/18 05:35:38;;;;;;;49.67;26.60;;;;;;;;;;5117754;28;20024;-77
2023/03/18 05:38:03;;;;;;;51.00;25.35;;;;;;;;;;5117840;28;20030;-77
2023/03/18 05:40:29;;;;;;;50.55;26.02;;;;;;;;;;5116743;28;20035;-76
2023/03/18 05:42:54;;;;;;;52.00;27.50;;;;;;;;;;5116479;28;20122;-76
2023/03/18 05:45:19;;;;;;;51.45;27.98;;;;;;;;;;5099588;28;20116;-76
2023/03/18 05:47:45;;;;;;;56.58;27.88;;;;;;;;;;5117858;28;20089;-76
2023/03/18 05:50:12;;;;;;;55.28;28.08;;;;;;;;;;5117519;28;20030;-76
2023/03/18 05:52:37;;;;;;;54.97;27.15;;;;;;;;;;5115449;28;20042;-77
2023/03/18 05:55:03;;;;;;;54.85;24.60;;;;;;;;;;5117411;28;20016;-77
2023/03/18 05:57:29;;;;;;;45.28;23.38;;;;;;;;;;5117534;28;20030;-77
2023/03/18 05:59:54;;;;;;;47.90;23.35;;;;;;;;;;5116344;28;20031;-77
2023/03/18 06:02:19;;;;;;;47.95;21.98;;;;;;;;;;5117657;28;20028;-77
2023/03/18 06:04:45;;;;;;;39.28;20.67;;;;;;;;;;5116015;28;20027;-77
2023/03/18 06:07:11;;;;;;;39.35;20.20;;;;;;;;;;5117301;28;20036;-77
2023/03/18 06:09:36;;;;;;;41.72;21.50;;;;;;;;;;5116364;28;20043;-76
2023/03/18 06:12:02;;;;;;;37.58;19.38;;;;;;;;;;5117320;28;20035;-76
2023/03/18 06:14:28;;;;;;;38.80;20.80;;;;;;;;;;5150276;27;20023;-76
2023/03/18 06:16:58;;;;;;;47.28;22.15;;;;;;;;;;5116033;28;20110;-76
2023/03/18 06:19:24;;;;;;;43.92;23.00;;;;;;;;;;5098992;28;20035;-76
2023/03/18 06:21:51;;;;;;;42.42;21.02;;;;;;;;;;5117387;28;20181;-77
2023/03/18 06:24:16;;;;;;;37.75;19.70;;;;;;;;;;5150349;27;20028;-76
2023/03/18 06:26:42;;;;;;;43.10;22.75;;;;;;;;;;5115849;28;20027;-76
2023/03/18 06:29:07;;;;;;;44.00;21.45;;;;;;;;;;5117410;28;20024;-76
2023/03/18 06:31:33;;;;;;;40.97;20.88;;;;;;;;;;5116980;28;20441;-76
2023/03/18 06:33:59;;;;;;;42.17;20.92;;;;;;;;;;5115720;28;20081;-77
2023/03/18 06:36:25;;;;;;;38.00;19.65;;;;;;;;;;5115639;28;20023;-76
2023/03/18 06:38:51;;;;;;;34.55;19.02;;;;;;;;;;5116665;28;20022;-77
2023/03/18 06:41:17;;;;;;;31.17;16.35;;;;;;;;;;5115819;28;20099;-76
2023/03/18 06:43:42;;;;;;;33.00;16.42;;;;;;;;;;5132987;27;20500;-77
2023/03/18 06:46:09;;;;;;;29.05;18.15;;;;;;;;;;5116296;28;20384;-77
2023/03/18 06:48:39;;;;;;;29.50;17.20;;;;;;;;;;5115167;28;20024;-78
2023/03/18 06:51:05;;;;;;;28.88;18.52;;;;;;;;;;5114891;28;20190;-77
2023/03/18 06:53:30;;;;;;;34.10;19.25;;;;;;;;;;5115551;28;20438;-77
2023/03/18 06:55:56;;;;;;;33.67;19.00;;;;;;;;;;5115638;28;20059;-77
2023/03/18 06:58:21;;;;;;;33.08;19.52;;;;;;;;;;5097280;28;20035;-77
2023/03/18 07:00:47;;;;;;;34.13;20.23;;;;;;;;;;5113601;28;20032;-78
2023/03/18 07:03:14;;;;;;;31.25;19.75;;;;;;;;;;5113776;28;20039;-77
2023/03/18 07:05:41;;;;;;;39.20;20.60;;;;;;;;;;5115634;28;20118;-77
2023/03/18 07:08:08;;;;;;;34.90;21.23;;;;;;;;;;5096220;28;20067;-77
2023/03/18 07:10:33;;;;;;;48.72;28.48;;;;;;;;;;5113556;28;20418;-77
2023/03/18 07:12:59;;;;;;;40.70;21.70;;;;;;;;;;5113645;28;20126;-77
2023/03/18 07:15:25;;;;;;;36.63;21.08;;;;;;;;;;5114316;28;20028;-78
2023/03/18 07:17:51;;;;;;;35.58;21.67;;;;;;;;;;5113868;28;20461;-78
2023/03/18 07:20:16;;;;;;;42.42;22.92;;;;;;;;;;5094995;28;20085;-77
2023/03/18 07:22:43;;;;;;;41.55;25.67;;;;;;;;;;5113136;28;20412;-77
2023/03/18 07:25:09;;;;;;;43.05;23.45;;;;;;;;;;5111875;28;20031;-77
2023/03/18 07:27:34;;;;;;;42.30;23.20;;;;;;;;;;5112072;28;20294;-77
2023/03/18 07:30:00;;;;;;;46.10;24.95;;;;;;;;;;5112995;28;20031;-77
2023/03/18 07:32:26;;;;;;;40.20;22.27;;;;;;;;;;5111979;28;20031;-76
2023/03/18 07:34:51;;;;;;;45.03;23.38;;;;;;;;;;5114597;28;20019;-77
2023/03/18 07:37:17;;;;;;;45.22;23.80;;;;;;;;;;5114143;28;20024;-77
2023/03/18 07:39:42;;;;;;;53.03;26.38;;;;;;;;;;5115431;28;20035;-78
2023/03/18 07:42:09;;;;;;;44.33;22.88;;;;;;;;;;5097188;28;20051;-76
2023/03/18 07:44:35;;;;;;;42.92;24.27;;;;;;;;;;5115608;28;20023;-78
2023/03/18 07:47:02;;;;;;;44.42;23.95;;;;;;;;;;5115126;28;20030;-77
2023/03/18 07:49:28;;;;;;;47.85;25.10;;;;;;;;;;5115600;28;20080;-77
2023/03/18 07:51:54;;;;;;;48.42;25.42;;;;;;;;;;5115275;28;20110;-77
2023/03/18 07:54:20;;;;;;;52.25;24.05;;;;;;;;;;5114196;28;20055;-78
2023/03/18 07:56:45;;;;;;;60.08;28.13;;;;;;;;;;5114256;28;20024;-77
2023/03/18 07:59:11;;;;;;;60.58;29.80;;;;;;;;;;5114938;28;20384;-78
2023/03/18 08:01:37;;;;;;;56.63;27.60;;;;;;;;;;5113673;28;20504;-78
2023/03/18 08:04:04;;;;;;;60.83;31.83;;;;;;;;;;5115052;28;20035;-78
2023/03/18 08:06:30;;;;;;;67.60;31.90;;;;;;;;;;5115144;28;20020;-78
2023/03/18 08:08:56;;;;;;;72.50;33.35;;;;;;;;;;5113652;28;20410;-78
2023/03/18 08:11:21;;;;;;;105.65;38.58;;;;;;;;;;5114012;28;20050;-78
2023/03/18 08:13:47;;;;;;;76.35;32.85;;;;;;;;;;5113737;28;20160;-78
2023/03/18 08:16:12;;;;;;;77.18;35.55;;;;;;;;;;5114545;28;20032;-78
2023/03/18 08:18:38;;;;;;;75.72;37.25;;;;;;;;;;5114629;28;20028;-77
2023/03/18 08:21:04;;;;;;;79.45;33.60;;;;;;;;;;5114617;28;20027;-77
2023/03/18 08:23:30;;;;;;;76.88;35.17;;;;;;;;;;5114778;28;20421;-77
2023/03/18 08:25:55;;;;;;;85.07;37.20;;;;;;;;;;5114249;28;20050;-77
2023/03/18 08:28:21;;;;;;;86.20;38.97;;;;;;;;;;5112620;28;20110;-79
2023/03/18 08:30:47;;;;;;;84.18;35.65;;;;;;;;;;5112898;28;20031;-77
2023/03/18 08:33:13;;;;;;;76.32;34.30;;;;;;;;;;5113825;28;20122;-78
2023/03/18 08:35:40;;;;;;;79.45;33.67;;;;;;;;;;5113216;28;20114;-76
2023/03/18 08:38:06;;;;;;;83.35;35.75;;;;;;;;;;5113064;28;20051;-79
2023/03/18 08:40:33;;;;;;;79.40;34.63;;;;;;;;;;5146127;27;20491;-79
2023/03/18 08:42:59;;;;;;;86.50;36.33;;;;;;;;;;5113320;28;20056;-81
2023/03/18 08:45:26;;;;;;;91.35;35.03;;;;;;;;;;5096985;28;20039;-80
2023/03/18 08:47:52;;;;;;;86.35;37.67;;;;;;;;;;5147131;27;20338;-82
2023/03/18 08:50:19;;;;;;;86.10;35.00;;;;;;;;;;5094010;28;20028;-78
2023/03/18 08:52:45;;;;;;;76.30;32.95;;;;;;;;;;5110933;28;20032;-77
2023/03/18 08:55:10;;;;;;;78.38;34.25;;;;;;;;;;5077278;28;20526;-77
2023/03/18 08:57:36;;;;;;;103.63;38.50;;;;;;;;;;5105994;28;20028;-78
2023/03/18 09:00:04;;;;;;;54.20;24.52;;;;;;;;;;5101889;28;20050;-78
2023/03/18 09:02:30;;;;;;;110.85;44.35;;;;;;;;;;5091016;28;20036;-80
2023/03/18 09:04:56;;;;;;;54.08;23.35;;;;;;;;;;5089869;28;20031;-81
2023/03/18 09:07:21;;;;;;;84.43;36.13;;;;;;;;;;5090993;28;20052;-84
2023/03/18 09:09:47;;;;;;;83.40;27.35;;;;;;;;;;5073926;28;20024;-80
2023/03/18 09:12:13;;;;;;;48.13;20.65;;;;;;;;;;5091545;28;20092;-81
2023/03/18 09:14:39;;;;;;;48.08;22.13;;;;;;;;;;5075628;28;20028;-82
2023/03/18 09:17:05;;;;;;;52.95;23.13;;;;;;;;;;5126822;28;20430;-82
2023/03/18 09:19:30;;;;;;;44.75;21.13;;;;;;;;;;5093520;28;20032;-83
2023/03/18 09:21:56;;;;;;;47.63;22.60;;;;;;;;;;5091678;28;20031;-82
2023/03/18 09:24:21;;;;;;;49.65;21.80;;;;;;;;;;5092941;28;20032;-80
2023/03/18 09:26:47;;;;;;;43.15;20.15;;;;;;;;;;5125767;28;20073;-83
2023/03/18 09:29:12;;;;;;;51.20;20.50;;;;;;;;;;5092503;28;20028;-83
2023/03/18 09:31:38;;;;;;;51.72;22.05;;;;;;;;;;5091235;28;20036;-81
2023/03/18 09:34:04;;;;;;;44.45;21.02;;;;;;;;;;5091245;28;20111;-81
2023/03/18 09:36:29;;;;;;;45.10;20.92;;;;;;;;;;5091665;28;20115;-80
2023/03/18 09:38:55;;;;;;;45.35;20.13;;;;;;;;;;5091959;28;20102;-82
2023/03/18 09:42:28;;;;;;;41.60;20.40;;;;;;;;;;5091889;28;20020;-82
2023/03/18 09:44:58;;;;;;;36.60;18.23;;;;;;;;;;5011307;28;20045;-81
2023/03/18 09:47:38;;;;;;;38.08;17.33;;;;;;;;;;5059995;28;20044;-81
2023/03/18 09:50:11;;;;;;;40.20;19.02;;;;;;;;;;5093240;28;20024;-76
2023/03/18 09:52:40;;;;;;;39.22;18.90;;;;;;;;;;5091542;28;20172;-78
2023/03/18 09:55:45;;;;;;;33.42;16.05;;;;;;;;;;5075262;28;20020;-78
2023/03/18 09:58:43;;;;;;;57.80;16.88;;;;;;;;;;5091299;28;20051;-78
2023/03/18 10:01:09;;;;;;;42.45;16.90;;;;;;;;;;5108078;28;20023;-77
2023/03/18 10:03:41;;;;;;;39.83;17.00;;;;;;;;;;5094839;28;20039;-77
2023/03/18 10:06:17;;;;;;;32.58;14.48;;;;;;;;;;5129079;27;20024;-78
2023/03/18 10:08:57;;;;;;;34.42;14.85;;;;;;;;;;5111595;28;20059;-77
2023/03/18 10:11:28;;;;;;;40.35;16.20;;;;;;;;;;5111609;28;20039;-77
2023/03/18 10:14:20;;;;;;;39.33;16.65;;;;;;;;;;5113165;28;20164;-77
2023/03/18 10:17:09;;;;;;;31.42;13.98;;;;;;;;;;5112721;28;20023;-77
2023/03/18 10:19:35;;;;;;;34.95;16.15;;;;;;;;;;5115710;28;20023;-77
2023/03/18 10:22:06;;;;;;;31.83;15.68;;;;;;;;;;5097883;28;20031;-78
2023/03/18 10:24:37;;;;;;;31.35;14.00;;;;;;;;;;5114881;28;20043;-78
2023/03/18 10:27:41;;;;;;;33.33;14.20;;;;;;;;;;5115381;28;20111;-77
2023/03/18 10:30:26;;;;;;;34.15;14.20;;;;;;;;;;5114661;28;20086;-77
2023/03/18 10:33:10;;;;;;;32.75;14.20;;;;;;;;;;5115149;28;20027;-79
2023/03/18 10:35:54;;;;;;;37.00;15.00;;;;;;;;;;5111874;28;20031;-77
2023/03/18 10:38:43;;;;;;;37.55;15.02;;;;;;;;;;5129551;27;20028;-77
2023/03/18 10:41:35;;;;;;;32.10;12.48;;;;;;;;;;5110861;28;20040;-77
2023/03/18 10:44:22;;;;;;;33.13;13.07;;;;;;;;;;5108835;27;20035;-77
2023/03/18 10:46:54;;;;;;;31.30;11.95;;;;;;;;;;5095466;28;20027;-77
2023/03/18 10:49:26;;;;;;;36.85;12.52;;;;;;;;;;5112282;28;20126;-77
2023/03/18 10:52:04;;;;;;;32.08;13.65;;;;;;;;;;5114153;28;20027;-79
2023/03/18 10:54:39;;;;;;;31.50;13.57;;;;;;;;;;5115637;28;20114;-77
2023/03/18 10:57:05;;;;;;;32.30;13.93;;;;;;;;;;5096629;28;20023;-77
2023/03/18 10:59:31;;;;;;;34.13;13.85;;;;;;;;;;5113631;28;20570;-78
2023/03/18 11:02:00;;;;;;;29.20;11.93;;;;;;;;;;5095003;28;20035;-78
2023/03/18 11:04:27;;;;;;;33.67;12.43;;;;;;;;;;5096742;28;20026;-77
2023/03/18 11:07:00;;;;;;;35.58;12.50;;;;;;;;;;5113528;28;20437;-78
2023/03/18 11:09:44;;;;;;;25.27;12.27;;;;;;;;;;5131030;27;20062;-78
2023/03/18 11:12:27;;;;;;;32.75;12.57;;;;;;;;;;5113375;28;20305;-78
2023/03/18 11:14:53;;;;;;;36.67;13.38;;;;;;;;;;5129304;27;20032;-77
2023/03/18 11:17:29;;;;;;;36.70;12.38;;;;;;;;;;5112508;28;20418;-78
2023/03/18 11:20:19;;;;;;;31.98;13.35;;;;;;;;;;5112504;28;20049;-78
2023/03/18 11:22:46;;;;;;;36.03;12.95;;;;;;;;;;5112404;28;20031;-77
2023/03/18 11:25:13;;;;;;;45.88;14.90;;;;;;;;;;5129056;27;20024;-79
2023/03/18 11:27:42;;;;;;;42.63;14.63;;;;;;;;;;5097041;28;20028;-79
2023/03/18 11:30:23;;;;;;;32.40;13.23;;;;;;;;;;5131729;27;20028;-76
2023/03/18 11:33:12;;;;;;;34.97;12.82;;;;;;;;;;5098627;28;20026;-78
2023/03/18 11:35:50;;;;;;;45.47;14.63;;;;;;;;;;5132959;27;20039;-76
2023/03/18 11:38:20;;;;;;;32.13;12.30;;;;;;;;;;5115446;28;20027;-77
2023/03/18 11:40:45;;;;;;;33.57;13.03;;;;;;;;;;5114106;28;20044;-78
2023/03/18 11:43:19;;;;;;;35.85;11.55;;;;;;;;;;5096891;28;20035;-76
2023/03/18 11:45:45;;;;;;;32.17;13.20;;;;;;;;;;5114120;28;20165;-76
2023/03/18 11:48:37;;;;;;;38.33;13.90;;;;;;;;;;5097414;28;20472;-75
2023/03/18 11:51:21;;;;;;;31.50;13.13;;;;;;;;;;5113790;28;20403;-76
2023/03/18 11:53:55;;;;;;;33.70;12.00;;;;;;;;;;5114791;28;20032;-76
2023/03/18 11:56:33;;;;;;;40.97;13.35;;;;;;;;;;5113643;28;20138;-77
2023/03/18 11:59:26;;;;;;;29.08;12.68;;;;;;;;;;5130934;27;20344;-76
2023/03/18 12:02:25;;;;;;;33.20;12.45;;;;;;;;;;5112981;28;20071;-78
2023/03/18 12:05:00;;;;;;;37.95;14.40;;;;;;;;;;5113479;28;20449;-75
2023/03/18 12:07:49;;;;;;;37.03;14.13;;;;;;;;;;5113383;28;20030;-76
2023/03/18 12:10:18;;;;;;;36.47;14.13;;;;;;;;;;5113507;28;20039;-75
2023/03/18 12:12:53;;;;;;;29.95;12.63;;;;;;;;;;5111443;28;20334;-75
2023/03/18 12:15:37;;;;;;;26.55;11.10;;;;;;;;;;5094616;28;20062;-76
2023/03/18 12:18:13;;;;;;;29.02;11.45;;;;;;;;;;5095062;28;20034;-77
2023/03/18 12:20:48;;;;;;;26.83;11.75;;;;;;;;;;5114145;28;20035;-75
2023/03/18 12:23:37;;;;;;;27.17;11.32;;;;;;;;;;5112764;28;20138;-75
2023/03/18 12:26:07;;;;;;;27.90;11.20;;;;;;;;;;5103113;28;20074;-75
2023/03/18 12:28:56;;;;;;;25.17;11.02;;;;;;;;;;5112848;28;20035;-76
2023/03/18 12:31:28;;;;;;;27.48;11.32;;;;;;;;;;5113393;28;20059;-77
2023/03/18 12:33:55;;;;;;;31.55;11.45;;;;;;;;;;5113721;28;20431;-76
2023/03/18 12:36:29;;;;;;;23.70;10.85;;;;;;;;;;5094949;28;20058;-75
2023/03/18 12:39:10;;;;;;;28.33;10.55;;;;;;;;;;5112689;28;20032;-75
2023/03/18 12:41:58;;;;;;;27.35;10.93;;;;;;;;;;5113153;28;20036;-75
2023/03/18 12:44:54;;;;;;;24.05;9.90;;;;;;;;;;5114008;28;20452;-75
2023/03/18 12:47:28;;;;;;;31.00;10.43;;;;;;;;;;5113970;28;20031;-75
2023/03/18 12:49:59;;;;;;;31.98;11.95;;;;;;;;;;5113245;28;20096;-78
2023/03/18 12:52:35;;;;;;;24.30;10.07;;;;;;;;;;5114214;28;20437;-75
2023/03/18 12:55:02;;;;;;;29.95;12.68;;;;;;;;;;5113066;28;20028;-77
2023/03/18 12:57:48;;;;;;;35.40;11.30;;;;;;;;;;5113073;28;20019;-75
2023/03/18 13:00:32;;;;;;;22.38;9.73;;;;;;;;;;5113088;28;20355;-77
2023/03/18 13:03:07;;;;;;;27.25;9.85;;;;;;;;;;5096458;28;20043;-75
2023/03/18 13:05:56;;;;;;;18.80;9.43;;;;;;;;;;5092649;28;20043;-77
2023/03/18 13:08:35;;;;;;;30.85;9.38;;;;;;;;;;5090802;28;20035;-76
2023/03/18 13:11:23;;;;;;;17.58;8.32;;;;;;;;;;5130163;28;20030;-77
2023/03/18 13:13:50;;;;;;;17.67;8.60;;;;;;;;;;5083499;28;20065;-78
2023/03/18 13:16:16;;;;;;;19.23;7.80;;;;;;;;;;5095774;28;20020;-76
2023/03/18 13:18:47;;;;;;;20.48;8.82;;;;;;;;;;5096454;28;20100;-77
2023/03/18 13:21:15;;;;;;;21.80;9.55;;;;;;;;;;5095883;28;20377;-77
2023/03/18 13:23:59;;;;;;;21.98;9.02;;;;;;;;;;5096100;28;20027;-75
2023/03/18 13:26:43;;;;;;;17.25;7.90;;;;;;;;;;5113101;28;20028;-76
2023/03/18 13:29:28;;;;;;;17.73;8.13;;;;;;;;;;5112953;28;20031;-77
2023/03/18 13:32:03;;;;;;;24.38;8.10;;;;;;;;;;5113019;28;20034;-76
2023/03/18 13:34:59;;;;;;;21.70;9.23;;;;;;;;;;5112488;28;20024;-77
2023/03/18 13:38:12;;;;;;;19.05;8.45;;;;;;;;;;5112725;28;20027;-75
2023/03/18 13:41:05;;;;;;;22.10;7.97;;;;;;;;;;5079713;28;20055;-75
2023/03/18 13:43:31;;;;;;;20.65;8.15;;;;;;;;;;5112668;28;20453;-76
2023/03/18 13:45:56;;;;;;;21.40;8.45;;;;;;;;;;5112716;28;20093;-77
2023/03/18 13:48:42;;;;;;;20.25;7.95;;;;;;;;;;5112695;28;20035;-78
2023/03/18 13:51:38;;;;;;;17.48;8.60;;;;;;;;;;5115238;28;20023;-77
2023/03/18 13:54:04;;;;;;;14.80;7.75;;;;;;;;;;5116012;28;20036;-76
2023/03/18 13:56:39;;;;;;;19.10;8.45;;;;;;;;;;5116418;28;20472;-75
2023/03/18 13:59:05;;;;;;;17.98;7.28;;;;;;;;;;5117635;28;20473;-76
2023/03/18 14:01:49;;;;;;;18.63;8.65;;;;;;;;;;5082682;28;20108;-76
2023/03/18 14:04:15;;;;;;;15.98;8.05;;;;;;;;;;5099078;28;20019;-77
2023/03/18 14:07:13;;;;;;;20.90;8.90;;;;;;;;;;5117607;28;20038;-76
2023/03/18 14:09:59;;;;;;;28.02;10.18;;;;;;;;;;5104306;28;20441;-77
2023/03/18 14:12:33;;;;;;;20.88;9.25;;;;;;;;;;5117251;28;20032;-77
2023/03/18 14:15:09;;;;;;;26.90;11.10;;;;;;;;;;5117503;28;20096;-76
2023/03/18 14:17:37;;;;;;;22.25;9.52;;;;;;;;;;5117051;28;20422;-77
2023/03/18 14:20:41;;;;;;;20.67;8.88;;;;;;;;;;5117254;28;20114;-76
2023/03/18 14:23:32;;;;;;;33.63;10.45;;;;;;;;;;5116101;28;20058;-76
2023/03/18 14:26:18;;;;;;;23.55;9.88;;;;;;;;;;5116170;28;20035;-76
2023/03/18 14:28:52;;;;;;;24.08;9.60;;;;;;;;;;5117036;28;20514;-76
2023/03/18 14:31:19;;;;;;;16.60;8.18;;;;;;;;;;5115709;28;20453;-77
2023/03/18 14:34:23;;;;;;;21.63;8.77;;;;;;;;;;5115850;28;20433;-77
2023/03/18 14:36:52;;;;;;;15.52;8.15;;;;;;;;;;5114003;28;20039;-77